createdAt,value
2018-11-28T00:00:24.306Z,14.95
2018-11-28T00:02:52.890Z,13.50
2018-11-28T00:05:21.446Z,14.55
2018-11-28T00:07:50.080Z,14.03
2018-11-28T00:10:18.676Z,13.20
2018-11-28T00:12:47.259Z,13.43
2018-11-28T00:15:16.333Z,14.03
2018-11-28T00:17:44.852Z,15.35
2018-11-28T00:20:16.612Z,12.78
2018-11-28T00:22:45.392Z,14.53
2018-11-28T00:25:14.648Z,15.50
2018-11-28T00:27:43.356Z,14.25
2018-11-28T00:30:23.137Z,13.90
2018-11-28T00:32:51.711Z,13.40
2018-11-28T00:35:22.317Z,13.35
2018-11-28T00:37:50.946Z,12.47
2018-11-28T00:40:20.876Z,14.68
2018-11-28T00:42:52.113Z,14.25
2018-11-28T00:45:25.823Z,13.53
2018-11-28T00:47:54.440Z,14.13
2018-11-28T00:50:25.345Z,14.80
2018-11-28T00:52:53.927Z,13.83
2018-11-28T00:55:22.465Z,12.20
2018-11-28T00:57:51.092Z,14.15
2018-11-28T01:00:21.534Z,13.28
2018-11-28T01:02:50.423Z,14.70
2018-11-28T01:05:19.168Z,14.05
2018-11-28T01:07:53.519Z,11.63
2018-11-28T01:10:23.858Z,13.77
2018-11-28T01:12:53.244Z,13.62
2018-11-28T01:15:22.224Z,12.05
2018-11-28T01:17:50.840Z,12.45
2018-11-28T01:20:21.061Z,11.83
2018-11-28T01:22:49.686Z,10.98
2018-11-28T01:25:19.284Z,13.40
2018-11-28T01:27:47.987Z,10.43
2018-11-28T01:30:18.615Z,11.70
2018-11-28T01:32:47.484Z,10.32
2018-11-28T01:35:17.190Z,10.72
2018-11-28T01:37:45.874Z,11.28
2018-11-28T01:40:19.635Z,10.60
2018-11-28T01:42:48.286Z,9.68
2018-11-28T01:45:19.546Z,10.37
2018-11-28T01:47:48.163Z,11.55
2018-11-28T01:50:17.744Z,9.10
2018-11-28T01:52:46.408Z,8.57
2018-11-28T01:55:18.890Z,8.88
2018-11-28T01:57:47.494Z,8.28
2018-11-28T02:00:18.899Z,9.28
2018-11-28T02:02:48.659Z,9.18
2018-11-28T02:05:17.222Z,8.60
2018-11-28T02:07:45.822Z,8.60
2018-11-28T02:10:15.235Z,9.73
2018-11-28T02:12:43.844Z,10.98
2018-11-28T02:15:18.568Z,8.50
2018-11-28T02:17:47.354Z,9.63
2018-11-28T02:20:16.722Z,7.90
2018-11-28T02:22:45.769Z,8.53
2018-11-28T02:25:15.316Z,9.48
2018-11-28T02:27:44.060Z,8.78
2018-11-28T02:30:14.641Z,10.68
2018-11-28T02:32:43.428Z,9.90
2018-11-28T02:35:13.093Z,10.18
2018-11-28T02:37:41.812Z,10.90
2018-11-28T02:40:11.445Z,8.58
2018-11-28T02:42:40.035Z,11.17
2018-11-28T02:45:14.935Z,8.90
2018-11-28T02:47:43.521Z,10.03
2018-11-28T02:50:12.958Z,9.78
2018-11-28T02:52:41.669Z,9.70
2018-11-28T02:55:12.266Z,10.63
2018-11-28T02:57:41.655Z,11.03
2018-11-28T03:00:13.916Z,10.48
2018-11-28T03:02:42.536Z,12.53
2018-11-28T03:05:12.054Z,11.05
2018-11-28T03:07:40.832Z,10.15
2018-11-28T03:10:17.490Z,10.58
2018-11-28T03:12:46.123Z,9.77
2018-11-28T03:15:16.396Z,9.23
2018-11-28T03:17:45.023Z,9.38
2018-11-28T03:20:13.707Z,9.40
2018-11-28T03:22:42.381Z,10.30
2018-11-28T03:25:11.721Z,10.45
2018-11-28T03:27:40.375Z,10.48
2018-11-28T03:30:16.444Z,9.85
2018-11-28T03:32:45.076Z,9.03
2018-11-28T03:35:14.855Z,9.63
2018-11-28T03:37:43.672Z,10.40
2018-11-28T03:40:12.689Z,8.83
2018-11-28T03:42:41.831Z,9.65
2018-11-28T03:45:11.861Z,10.10
2018-11-28T03:47:40.651Z,9.63
2018-11-28T03:50:10.602Z,11.60
2018-11-28T03:52:39.658Z,10.40
2018-11-28T03:55:14.327Z,9.60
2018-11-28T03:57:43.740Z,12.55
2018-11-28T04:00:15.575Z,11.22
2018-11-28T04:02:44.303Z,12.58
2018-11-28T04:05:13.357Z,10.20
2018-11-28T04:07:42.090Z,11.53
2018-11-28T04:10:14.702Z,12.90
2018-11-28T04:12:43.975Z,13.75
2018-11-28T04:15:14.842Z,11.00
2018-11-28T04:17:43.489Z,12.33
2018-11-28T04:20:13.800Z,12.68
2018-11-28T04:22:42.487Z,13.30
2018-11-28T04:25:11.927Z,12.47
2018-11-28T04:27:40.571Z,12.73
2018-11-28T04:30:11.020Z,11.63
2018-11-28T04:32:39.636Z,12.30
2018-11-28T04:35:09.932Z,13.70
2018-11-28T04:37:38.506Z,11.22
2018-11-28T04:40:09.887Z,12.68
2018-11-28T04:42:38.595Z,13.75
2018-11-28T04:45:10.975Z,12.80
2018-11-28T04:47:39.660Z,12.95
2018-11-28T04:50:09.714Z,12.65
2018-11-28T04:52:38.444Z,12.63
2018-11-28T04:55:13.305Z,12.60
2018-11-28T04:57:41.944Z,13.03
2018-11-28T05:00:12.098Z,12.70
2018-11-28T05:02:40.748Z,11.80
2018-11-28T05:05:10.289Z,11.22
2018-11-28T05:07:39.242Z,11.80
2018-11-28T05:10:10.089Z,12.70
2018-11-28T05:12:38.741Z,13.35
2018-11-28T05:15:11.420Z,13.28
2018-11-28T05:17:40.287Z,13.78
2018-11-28T05:20:24.951Z,13.38
2018-11-28T05:22:54.797Z,12.63
2018-11-28T05:25:24.610Z,15.15
2018-11-28T05:27:54.320Z,15.10
2018-11-28T05:30:24.832Z,14.83
2018-11-28T05:32:53.463Z,13.83
2018-11-28T05:35:39.866Z,16.57
2018-11-28T05:38:11.888Z,13.80
2018-11-28T05:40:40.908Z,15.03
2018-11-28T05:43:09.513Z,14.25
2018-11-28T05:45:38.239Z,15.93
2018-11-28T05:48:06.913Z,15.80
2018-11-28T05:50:35.616Z,15.60
2018-11-28T05:53:04.479Z,16.57
2018-11-28T05:55:33.117Z,15.70
2018-11-28T05:58:01.780Z,16.00
2018-11-28T06:00:37.516Z,14.70
2018-11-28T06:03:07.590Z,15.60
2018-11-28T06:05:36.347Z,14.63
2018-11-28T06:08:05.104Z,16.70
2018-11-28T06:10:33.763Z,16.23
2018-11-28T06:13:02.485Z,18.03
2018-11-28T06:15:31.223Z,17.97
2018-11-28T06:17:59.793Z,18.87
2018-11-28T06:20:28.990Z,17.90
2018-11-28T06:22:57.669Z,18.02
2018-11-28T06:25:26.364Z,17.48
2018-11-28T06:27:54.936Z,17.73
2018-11-28T06:30:23.669Z,18.23
2018-11-28T06:32:52.312Z,16.43
2018-11-28T06:35:21.005Z,17.37
2018-11-28T06:37:49.680Z,18.30
2018-11-28T06:40:23.808Z,16.93
2018-11-28T06:42:48.175Z,17.55
2018-11-28T06:45:19.934Z,17.55
2018-11-28T06:47:48.583Z,17.60
2018-11-28T06:50:18.247Z,16.77
2018-11-28T06:52:49.553Z,19.35
2018-11-28T06:55:19.305Z,17.25
2018-11-28T07:00:48.870Z,18.82
2018-11-28T07:03:18.045Z,20.02
2018-11-28T07:05:46.722Z,19.62
2018-11-28T07:08:18.867Z,19.62
2018-11-28T07:10:49.398Z,19.23
2018-11-28T07:13:18.063Z,22.15
2018-11-28T07:15:46.730Z,19.65
2018-11-28T07:18:26.357Z,20.30
2018-11-28T07:20:55.054Z,21.45
2018-11-28T07:23:23.677Z,19.85
2018-11-28T07:25:52.298Z,20.70
2018-11-28T07:28:20.991Z,21.80
2018-11-28T07:30:50.290Z,21.37
2018-11-28T07:33:18.909Z,22.07
2018-11-28T07:35:47.684Z,20.27
2018-11-28T07:38:16.336Z,24.05
2018-11-28T07:40:45.063Z,21.75
2018-11-28T07:43:14.488Z,22.20
2018-11-28T07:45:46.833Z,21.03
2018-11-28T07:48:15.473Z,22.00
2018-11-28T07:50:44.181Z,22.48
2018-11-28T07:53:12.882Z,24.00
2018-11-28T07:55:41.546Z,21.40
2018-11-28T07:58:10.169Z,21.97
2018-11-28T08:00:38.933Z,25.35
2018-11-28T08:03:08.725Z,24.12
2018-11-28T08:05:38.305Z,24.18
2018-11-28T08:08:08.673Z,24.32
2018-11-28T08:10:37.571Z,25.10
2018-11-28T08:13:07.074Z,25.72
2018-11-28T08:15:36.014Z,25.97
2018-11-28T08:18:04.760Z,25.23
2018-11-28T08:20:33.624Z,25.10
2018-11-28T08:23:02.337Z,25.82
2018-11-28T08:25:31.102Z,25.30
2018-11-28T08:27:59.836Z,25.82
2018-11-28T08:30:28.703Z,26.25
2018-11-28T08:32:57.927Z,28.90
2018-11-28T08:35:26.756Z,25.23
2018-11-28T08:37:56.266Z,26.30
2018-11-28T08:40:27.159Z,25.00
2018-11-28T08:42:57.662Z,27.00
2018-11-28T08:45:26.334Z,26.95
2018-11-28T08:47:56.247Z,26.10
2018-11-28T08:50:26.164Z,27.17
2018-11-28T08:52:54.840Z,25.03
2018-11-28T08:55:23.564Z,27.27
2018-11-28T08:57:52.418Z,26.30
2018-11-28T09:00:22.223Z,24.53
2018-11-28T09:02:55.684Z,25.82
2018-11-28T09:05:24.401Z,23.27
2018-11-28T09:07:52.995Z,24.10
2018-11-28T09:10:21.689Z,23.80
2018-11-28T09:12:50.628Z,22.50
2018-11-28T09:15:22.588Z,21.62
2018-11-28T09:17:51.265Z,22.90
2018-11-28T09:20:19.955Z,25.52
2018-11-28T09:22:48.617Z,23.25
2018-11-28T09:25:18.175Z,23.38
2018-11-28T09:27:49.152Z,22.42
2018-11-28T09:30:18.762Z,21.62
2018-11-28T09:32:48.232Z,20.10
2018-11-28T09:35:17.159Z,20.15
2018-11-28T09:37:46.145Z,18.92
2018-11-28T09:40:15.721Z,19.00
2018-11-28T09:42:44.373Z,18.40
2018-11-28T09:45:14.039Z,19.75
2018-11-28T09:47:42.794Z,18.92
2018-11-28T09:50:13.326Z,17.90
2018-11-28T09:52:42.104Z,16.27
2018-11-28T09:55:14.845Z,17.52
2018-11-28T09:57:43.652Z,16.00
2018-11-28T10:00:15.377Z,15.55
2018-11-28T10:02:44.058Z,15.53
2018-11-28T10:05:13.967Z,14.15
2018-11-28T10:07:42.607Z,14.78
2018-11-28T10:10:12.376Z,15.95
2018-11-28T10:12:40.995Z,15.17
2018-11-28T10:15:26.208Z,14.33
2018-11-28T10:17:54.900Z,12.78
2018-11-28T10:20:23.551Z,14.00
2018-11-28T10:22:52.822Z,12.28
2018-11-28T10:25:23.290Z,12.47
2018-11-28T10:27:58.411Z,11.83
2018-11-28T10:30:29.182Z,12.23
2018-11-28T10:32:57.201Z,12.47
2018-11-28T10:35:25.943Z,10.65
2018-11-28T10:37:54.652Z,11.40
2018-11-28T10:40:24.200Z,11.68
2018-11-28T10:42:55.487Z,11.43
2018-11-28T10:45:25.033Z,9.53
2018-11-28T10:47:53.677Z,9.65
2018-11-28T10:50:22.365Z,10.48
2018-11-28T10:52:51.009Z,8.95
2018-11-28T10:55:20.532Z,9.90
2018-11-28T10:57:50.179Z,8.00
2018-11-28T11:00:26.026Z,8.50
2018-11-28T11:03:00.115Z,9.43
2018-11-28T11:05:34.232Z,9.15
2018-11-28T11:08:08.418Z,7.60
2018-11-28T11:10:43.555Z,8.48
2018-11-28T11:13:16.806Z,7.65
2018-11-28T11:15:51.895Z,9.13
2018-11-28T11:18:20.563Z,8.05
2018-11-28T11:20:49.259Z,8.95
2018-11-28T11:23:17.931Z,9.03
2018-11-28T11:25:46.710Z,8.15
2018-11-28T11:28:15.282Z,8.18
2018-11-28T11:30:43.944Z,9.90
2018-11-28T11:33:12.623Z,8.27
2018-11-28T11:35:41.291Z,8.43
2018-11-28T11:38:10.029Z,10.03
2018-11-28T11:40:38.620Z,8.78
2018-11-28T11:43:07.428Z,9.77
2018-11-28T11:45:36.187Z,9.10
2018-11-28T11:48:04.894Z,8.18
2018-11-28T11:50:33.591Z,9.58
2018-11-28T11:53:02.253Z,8.78
2018-11-28T11:55:30.939Z,10.55
2018-11-28T11:57:59.594Z,9.15
2018-11-28T12:00:28.286Z,9.83
2018-11-28T12:02:59.398Z,9.13
2018-11-28T12:05:28.120Z,7.23
2018-11-28T12:07:56.782Z,7.50
2018-11-28T12:10:25.405Z,7.12
2018-11-28T12:12:54.086Z,6.00
2018-11-28T12:15:22.870Z,6.28
2018-11-28T12:17:51.493Z,6.40
2018-11-28T12:20:22.905Z,5.60
2018-11-28T12:22:52.882Z,6.15
2018-11-28T12:25:20.247Z,6.35
2018-11-28T12:27:48.873Z,5.37
2018-11-28T12:30:17.471Z,5.20
2018-11-28T12:32:46.150Z,5.17
2018-11-28T12:35:17.662Z,5.27
2018-11-28T12:37:46.305Z,7.70
2018-11-28T12:40:15.862Z,6.08
2018-11-28T12:42:49.438Z,6.62
2018-11-28T12:45:18.925Z,6.83
2018-11-28T12:47:47.984Z,7.90
2018-11-28T12:50:20.384Z,6.45
2018-11-28T12:52:49.002Z,5.72
2018-11-28T12:55:18.127Z,5.90
2018-11-28T12:57:46.833Z,6.80
2018-11-28T13:00:17.974Z,6.20
2018-11-28T13:02:47.671Z,7.37
2018-11-28T13:05:18.085Z,6.37
2018-11-28T13:07:46.999Z,8.55
2018-11-28T13:10:21.817Z,6.90
2018-11-28T13:12:57.032Z,7.00
2018-11-28T13:15:26.489Z,6.85
2018-11-28T13:17:56.382Z,6.45
2018-11-28T13:20:25.054Z,6.92
2018-11-28T13:22:54.918Z,7.47
2018-11-28T13:25:24.684Z,7.90
2018-11-28T13:27:53.343Z,7.35
2018-11-28T13:30:22.750Z,6.92
2018-11-28T13:32:51.959Z,6.40
2018-11-28T13:35:24.899Z,6.40
2018-11-28T13:37:59.015Z,8.15
2018-11-28T13:40:27.598Z,7.08
2018-11-28T13:42:56.494Z,7.40
2018-11-28T13:45:27.040Z,7.03
2018-11-28T13:47:56.028Z,8.37
2018-11-28T13:50:24.752Z,7.83
2018-11-28T13:52:54.369Z,8.00
2018-11-28T13:55:43.825Z,7.45
2018-11-28T13:57:57.113Z,6.73
2018-11-28T14:00:25.752Z,7.10
2018-11-28T14:02:54.407Z,7.65
2018-11-28T14:05:23.106Z,7.40
2018-11-28T14:07:51.748Z,7.58
2018-11-28T14:10:20.458Z,7.67
2018-11-28T14:12:49.088Z,7.05
2018-11-28T14:15:18.839Z,8.60
2018-11-28T14:17:51.009Z,7.15
2018-11-28T14:20:19.652Z,5.97
2018-11-28T14:22:48.294Z,7.00
2018-11-28T14:25:16.886Z,7.00
2018-11-28T14:27:46.938Z,6.97
2018-11-28T14:30:19.793Z,7.47
2018-11-28T14:32:48.659Z,6.50
2018-11-28T14:35:17.592Z,6.97
2018-11-28T14:37:46.377Z,7.30
2018-11-28T14:40:16.194Z,7.27
2018-11-28T14:42:45.978Z,7.20
2018-11-28T14:45:15.745Z,9.08
2018-11-28T14:47:44.836Z,7.00
2018-11-28T14:50:21.752Z,7.30
2018-11-28T14:52:50.503Z,8.77
2018-11-28T14:55:21.333Z,7.20
2018-11-28T14:57:50.747Z,8.68
2018-11-28T15:00:22.733Z,7.85
2018-11-28T15:02:55.198Z,7.55
2018-11-28T15:05:42.646Z,7.40
2018-11-28T15:08:13.811Z,8.75
2018-11-28T15:10:45.950Z,6.97
2018-11-28T15:13:14.586Z,8.58
2018-11-28T15:15:44.058Z,7.37
2018-11-28T15:18:12.670Z,8.58
2018-11-28T15:20:41.231Z,6.97
2018-11-28T15:23:09.893Z,8.88
2018-11-28T15:25:38.541Z,8.73
2018-11-28T15:28:07.120Z,9.48
2018-11-28T15:30:35.741Z,8.25
2018-11-28T15:33:04.819Z,8.03
2018-11-28T15:35:33.996Z,8.10
2018-11-28T15:38:02.632Z,9.25
2018-11-28T15:40:31.196Z,9.00
2018-11-28T15:42:59.850Z,9.73
2018-11-28T15:45:28.621Z,9.45
2018-11-28T15:47:57.429Z,9.85
2018-11-28T15:50:26.057Z,10.03
2018-11-28T15:52:54.704Z,9.55
2018-11-28T15:55:23.445Z,10.78
2018-11-28T15:57:52.059Z,11.93
2018-11-28T16:00:22.433Z,10.82
2018-11-28T16:02:50.559Z,9.85
2018-11-28T16:05:19.174Z,10.70
2018-11-28T16:07:48.026Z,11.03
2018-11-28T16:10:22.141Z,10.13
2018-11-28T16:12:51.218Z,9.93
2018-11-28T16:15:24.402Z,9.85
2018-11-28T16:17:53.070Z,12.17
2018-11-28T16:20:21.837Z,11.15
2018-11-28T16:22:50.499Z,11.25
2018-11-28T16:25:19.199Z,11.05
2018-11-28T16:27:48.242Z,12.00
2018-11-28T16:30:17.146Z,12.10
2018-11-28T16:32:46.473Z,12.93
2018-11-28T16:35:16.081Z,12.70
2018-11-28T16:37:44.790Z,12.00
2018-11-28T16:40:15.405Z,12.20
2018-11-28T16:42:44.170Z,11.25
2018-11-28T16:45:14.997Z,12.90
2018-11-28T16:47:43.622Z,11.40
2018-11-28T16:50:13.129Z,14.13
2018-11-28T16:52:41.907Z,12.47
2018-11-28T16:55:13.370Z,10.90
2018-11-28T16:57:44.053Z,11.60
2018-11-28T17:00:16.851Z,12.23
2018-11-28T17:02:45.425Z,11.70
2018-11-28T17:05:18.930Z,11.78
2018-11-28T17:07:47.991Z,12.78
2018-11-28T17:10:18.567Z,12.73
2018-11-28T17:12:48.570Z,12.10
2018-11-28T17:15:18.134Z,10.82
2018-11-28T17:17:46.752Z,10.95
2018-11-28T17:20:16.586Z,13.40
2018-11-28T17:22:45.482Z,11.97
2018-11-28T17:25:17.207Z,11.75
2018-11-28T17:27:45.807Z,13.32
2018-11-28T17:30:18.762Z,12.13
2018-11-28T17:32:45.134Z,12.47
2018-11-28T17:35:14.460Z,13.08
2018-11-28T17:37:43.144Z,13.45
2018-11-28T17:40:13.190Z,13.93
2018-11-28T17:42:42.355Z,12.60
2018-11-28T17:45:13.309Z,14.50
2018-11-28T17:47:41.997Z,14.43
2018-11-28T17:50:20.267Z,12.85
2018-11-28T17:53:00.219Z,13.72
2018-11-28T17:55:30.173Z,13.55
2018-11-28T17:57:59.005Z,14.63
2018-11-28T18:00:27.733Z,13.22
2018-11-28T18:02:56.346Z,13.68
2018-11-28T18:05:24.957Z,13.58
2018-11-28T18:07:53.582Z,17.85
2018-11-28T18:10:24.055Z,16.40
2018-11-28T18:13:03.567Z,15.23
2018-11-28T18:15:32.159Z,15.83
2018-11-28T18:18:00.818Z,14.07
2018-11-28T18:20:29.397Z,15.70
2018-11-28T18:22:57.989Z,15.00
2018-11-28T18:25:27.916Z,16.07
2018-11-28T18:27:56.557Z,15.25
2018-11-28T18:30:25.209Z,17.73
2018-11-28T18:32:53.855Z,16.93
2018-11-28T18:35:22.474Z,16.60
2018-11-28T18:37:51.071Z,17.67
2018-11-28T18:40:19.656Z,17.57
2018-11-28T18:42:48.450Z,18.52
2018-11-28T18:45:19.439Z,19.23
2018-11-28T18:47:48.129Z,17.87
2018-11-28T18:50:16.706Z,16.67
2018-11-28T18:52:45.418Z,17.50
2018-11-28T18:55:18.074Z,19.25
2018-11-28T18:57:47.732Z,20.40
2018-11-28T19:00:18.671Z,17.82
2018-11-28T19:02:47.240Z,18.27
2018-11-28T19:05:15.906Z,18.42
2018-11-28T19:07:44.535Z,20.80
2018-11-28T19:10:19.073Z,18.90
2018-11-28T19:12:47.691Z,17.50
2018-11-28T19:15:21.132Z,21.07
2018-11-28T19:17:49.910Z,19.00
2018-11-28T19:20:19.747Z,21.48
2018-11-28T19:22:48.825Z,20.48
2018-11-28T19:25:19.431Z,22.60
2018-11-28T19:27:48.057Z,23.40
2018-11-28T19:30:19.175Z,24.65
2018-11-28T19:32:47.770Z,25.45
2018-11-28T19:35:16.472Z,24.52
2018-11-28T19:37:45.091Z,25.40
2018-11-28T19:40:18.776Z,26.48
2018-11-28T19:42:47.438Z,24.65
2018-11-28T19:45:16.038Z,24.92
2018-11-28T19:47:44.888Z,28.02
2018-11-28T19:50:18.917Z,28.17
2018-11-28T19:52:47.579Z,27.65
2018-11-28T19:55:16.212Z,28.98
2018-11-28T19:57:44.802Z,29.12
2018-11-28T20:00:15.354Z,30.05
2018-11-28T20:02:44.352Z,29.52
2018-11-28T20:05:13.027Z,27.17
2018-11-28T20:07:42.903Z,33.13
2018-11-28T20:10:13.645Z,30.88
2018-11-28T20:12:42.487Z,31.55
2018-11-28T20:15:12.837Z,32.75
2018-11-28T20:17:41.592Z,32.93
2018-11-28T20:20:13.520Z,34.93
2018-11-28T20:22:42.232Z,34.13
2018-11-28T20:25:12.092Z,33.70
2018-11-28T20:27:41.512Z,34.90
2018-11-28T20:30:15.870Z,37.03
2018-11-28T20:32:44.568Z,36.20
2018-11-28T20:35:13.245Z,37.25
2018-11-28T20:37:42.275Z,36.03
2018-11-28T20:40:13.179Z,38.10
2018-11-28T20:42:43.129Z,41.28
2018-11-28T20:45:12.095Z,38.55
2018-11-28T20:47:40.726Z,36.73
2018-11-28T20:50:12.738Z,39.17
2018-11-28T20:52:42.501Z,37.53
2018-11-28T20:55:11.283Z,41.23
2018-11-28T20:57:39.989Z,38.95
2018-11-28T21:00:13.117Z,41.13
2018-11-28T21:02:41.894Z,36.75
2018-11-28T21:05:10.542Z,38.70
2018-11-28T21:07:39.150Z,41.63
2018-11-28T21:10:21.857Z,41.98
2018-11-28T21:12:50.705Z,38.67
2018-11-28T21:15:19.360Z,42.48
2018-11-28T21:17:48.154Z,43.92
2018-11-28T21:20:18.004Z,42.55
2018-11-28T21:22:53.878Z,42.25
2018-11-28T21:25:22.601Z,38.45
2018-11-28T21:27:51.258Z,40.58
2018-11-28T21:30:20.849Z,42.67
2018-11-28T21:32:50.657Z,43.83
2018-11-28T21:35:21.520Z,39.55
2018-11-28T21:37:50.138Z,42.48
2018-11-28T21:40:18.821Z,43.58
2018-11-28T21:42:47.825Z,40.07
2018-11-28T21:45:17.587Z,43.92
2018-11-28T21:47:46.237Z,43.17
2018-11-28T21:50:16.743Z,42.98
2018-11-28T21:52:45.390Z,41.45
2018-11-28T21:55:16.156Z,39.80
2018-11-28T21:57:44.802Z,40.78
2018-11-28T22:00:15.790Z,41.73
2018-11-28T22:02:44.542Z,41.73
2018-11-28T22:05:14.023Z,41.88
2018-11-28T22:07:42.671Z,42.65
2018-11-28T22:10:15.149Z,41.85
2018-11-28T22:12:43.780Z,40.55
2018-11-28T22:15:14.396Z,42.13
2018-11-28T22:17:44.930Z,39.33
2018-11-28T22:20:14.420Z,43.92
2018-11-28T22:22:43.085Z,41.28
2018-11-28T22:25:13.030Z,40.55
2018-11-28T22:27:41.684Z,41.25
2018-11-28T22:30:14.374Z,46.37
2018-11-28T22:32:43.594Z,42.55
2018-11-28T22:35:12.179Z,46.02
2018-11-28T22:37:40.876Z,45.40
2018-11-28T22:40:17.513Z,45.90
2018-11-28T22:42:46.836Z,42.45
2018-11-28T22:45:16.755Z,45.00
2018-11-28T22:47:45.445Z,43.65
2018-11-28T22:50:14.390Z,43.58
2018-11-28T22:52:43.035Z,45.10
2018-11-28T22:55:13.570Z,45.63
2018-11-28T22:57:42.218Z,44.15
2018-11-28T23:00:12.458Z,44.17
2018-11-28T23:03:01.439Z,44.03
2018-11-28T23:05:34.952Z,49.53
2018-11-28T23:08:04.863Z,43.78
2018-11-28T23:10:33.421Z,48.10
2018-11-28T23:13:02.077Z,44.60
2018-11-28T23:15:30.687Z,44.93
2018-11-28T23:17:59.277Z,48.92
2018-11-28T23:20:27.928Z,45.12
2018-11-28T23:22:56.514Z,50.55
2018-11-28T23:25:25.122Z,48.53
2018-11-28T23:27:55.425Z,48.30
2018-11-28T23:30:24.057Z,46.40
2018-11-28T23:32:54.347Z,50.17
2018-11-28T23:35:23.386Z,47.33
2018-11-28T23:37:51.959Z,50.08
2018-11-28T23:40:21.359Z,48.93
2018-11-28T23:42:50.273Z,47.65
2018-11-28T23:45:18.949Z,50.60
2018-11-28T23:47:47.710Z,49.08
2018-11-28T23:50:17.214Z,50.58
2018-11-28T23:52:46.130Z,46.15
2018-11-28T23:55:17.615Z,49.98
2018-11-28T23:57:46.249Z,49.95
